Terminal Aerodrome Forecast
Issued by NWS Portland, OR

Current Version | Previous Version | Text Only | Print | Product List | Glossary On
Versions: 1 2 3 4 5 6 7 8 9 10 11 12 13
000
FTUS46 KPQR 160811 AAA
TAFSLE
TAF AMD
KSLE 160811Z 1608/1706 18003KT 1SM BR BKN003
     FM161600 18003KT 3SM BR BKN010 BKN060
     FM161900 18005KT P6SM BKN025 BKN040=

USA.gov is the U.S. government's official web portal to all federal, state and local government web resources and services.